Terminal Aerodrome Forecast
Issued by NWS Missoula, MT

Home | Current Version | Previous Version | Text Only | Print | Product List | Glossary On
Versions: 1 2 3 4 5 6 7 8 9 10 11 12 13 14 15 16 17 18 19 20
000
FTUS45 KMSO 250500
TAFBTM
TAF
KBTM 250536Z 2506/2606 08003KT P6SM FEW015 SCT023 OVC035
     FM251800 17010KT P6SM VCSH SCT030 OVC050
     FM260000 25010G15KT P6SM -SHRA SCT025 OVC040=

USA.gov is the U.S. government's official web portal to all federal, state and local government web resources and services.